Time;durP1;ratioP1;P1;durP2;ratioP2;P2;SDS_P1;SDS_P2;PMS_P1;PMS_P2;Temp;Humidity;BMP_temperature;BMP_pressure;BME280_temperature;BME280_humidity;BME280_pressure;Samples;Min_cycle;Max_cycle;Signal;HPM_P1;HPM_P2
2021/07/18 00:01:32;;;;;;;17.75;15.85;;;;;;;23.92;71.58;99211.97;5103094;28;20028;-60
2021/07/18 00:03:58;;;;;;;18.75;15.50;;;;;;;23.93;71.59;99207.53;5109174;28;20087;-61
2021/07/18 00:06:24;;;;;;;17.33;15.52;;;;;;;23.87;71.61;99206.25;5113857;28;20287;-61
2021/07/18 00:08:50;;;;;;;19.67;15.65;;;;;;;23.88;71.84;99207.06;5122847;28;20016;-61
2021/07/18 00:11:15;;;;;;;18.20;16.23;;;;;;;23.84;71.83;99208.28;5114198;28;20024;-61
2021/07/18 00:13:41;;;;;;;18.48;15.35;;;;;;;23.81;71.80;99206.72;5102949;28;20087;-61
2021/07/18 00:16:07;;;;;;;21.02;16.10;;;;;;;23.75;72.08;99201.97;5110240;28;20020;-61
2021/07/18 00:18:33;;;;;;;20.30;15.95;;;;;;;23.85;71.60;99209.97;5122544;28;20240;-61
2021/07/18 00:20:59;;;;;;;22.30;16.88;;;;;;;23.86;71.46;99203.72;5116571;28;20048;-61
2021/07/18 00:23:24;;;;;;;19.73;16.13;;;;;;;23.87;71.30;99200.97;5120625;28;20028;-60
2021/07/18 00:25:50;;;;;;;19.83;17.55;;;;;;;23.85;71.04;99197.56;5121483;28;20065;-60
2021/07/18 00:28:16;;;;;;;21.38;16.92;;;;;;;23.77;71.66;99198.22;5106020;28;20209;-60
2021/07/18 00:30:42;;;;;;;20.58;17.08;;;;;;;23.72;71.65;99196.94;5102805;28;20043;-60
2021/07/18 00:33:08;;;;;;;21.00;17.70;;;;;;;23.68;71.72;99190.22;5109593;28;20031;-60
2021/07/18 00:35:34;;;;;;;19.08;17.10;;;;;;;23.66;71.94;99192.13;5113572;28;20081;-60
2021/07/18 00:38:00;;;;;;;22.20;16.60;;;;;;;23.59;72.45;99175.97;5108069;28;20052;-61
2021/07/18 00:40:26;;;;;;;19.85;16.38;;;;;;;23.55;72.62;99193.88;5114127;28;20222;-61
2021/07/18 00:43:04;;;;;;;19.20;16.05;;;;;;;23.58;72.38;99184.88;5126602;28;20043;-61
2021/07/18 00:45:30;;;;;;;19.90;16.77;;;;;;;23.54;72.67;99184.28;5125945;28;20055;-60
2021/07/18 00:47:56;;;;;;;18.02;15.50;;;;;;;23.56;72.71;99185.00;5112322;28;20055;-61
2021/07/18 00:50:22;;;;;;;19.50;16.02;;;;;;;23.51;72.51;99183.69;5106338;28;20052;-60
2021/07/18 00:52:48;;;;;;;25.23;16.77;;;;;;;23.53;72.72;99182.63;5106063;28;20278;-60
2021/07/18 00:55:14;;;;;;;21.67;16.73;;;;;;;23.51;72.01;99176.59;5114404;28;20023;-60
2021/07/18 00:57:44;;;;;;;19.45;15.98;;;;;;;23.34;72.10;99142.81;5124275;28;20078;-60
2021/07/18 01:00:12;;;;;;;19.08;16.02;;;;;;;23.56;72.27;99184.16;5117791;28;20328;-60
2021/07/18 01:02:38;;;;;;;23.08;17.17;;;;;;;23.53;72.37;99194.97;5087933;28;20047;-60
2021/07/18 01:05:06;;;;;;;22.25;16.20;;;;;;;23.54;72.21;99204.59;5114020;28;20355;-60
2021/07/18 01:07:33;;;;;;;19.27;15.85;;;;;;;23.55;72.15;99208.91;5106074;28;20055;-60
2021/07/18 01:10:00;;;;;;;19.30;14.40;;;;;;;23.56;71.80;99203.50;5125908;28;20047;-59
2021/07/18 01:12:26;;;;;;;17.33;14.57;;;;;;;23.49;72.47;99204.97;5123947;28;20249;-59
2021/07/18 01:14:52;;;;;;;18.25;15.38;;;;;;;23.49;72.31;99198.88;5119358;28;20059;-59
2021/07/18 01:17:18;;;;;;;19.98;15.95;;;;;;;23.49;72.25;99196.22;5114534;28;20339;-59
2021/07/18 01:19:44;;;;;;;17.35;15.32;;;;;;;23.39;72.41;99182.94;5105829;28;20208;-59
2021/07/18 01:22:10;;;;;;;18.25;15.18;;;;;;;23.46;72.66;99185.88;5121669;28;20086;-60
2021/07/18 01:24:36;;;;;;;21.92;15.55;;;;;;;23.41;73.09;99194.19;5106069;28;20317;-60
2021/07/18 01:27:04;;;;;;;19.40;14.77;;;;;;;23.10;73.09;99143.84;5120283;28;20054;-60
2021/07/18 01:29:33;;;;;;;17.52;15.05;;;;;;;23.38;73.18;99192.66;5109027;28;20062;-59
2021/07/18 01:31:59;;;;;;;18.35;15.07;;;;;;;23.37;73.22;99187.50;5125434;28;20054;-60
2021/07/18 01:34:25;;;;;;;20.05;15.30;;;;;;;23.36;73.49;99196.38;5115416;28;20051;-59
2021/07/18 01:36:52;;;;;;;17.33;15.45;;;;;;;23.38;73.19;99191.81;5113660;28;20336;-60
2021/07/18 01:39:18;;;;;;;20.08;15.13;;;;;;;23.40;73.35;99198.66;5122297;28;20047;-60
2021/07/18 01:41:46;;;;;;;19.13;14.50;;;;;;;23.16;72.68;99153.97;5125238;28;20409;-60
2021/07/18 01:44:12;;;;;;;16.83;15.07;;;;;;;23.34;73.34;99193.03;5125336;28;20062;-60
2021/07/18 01:46:38;;;;;;;18.27;15.02;;;;;;;23.37;72.75;99188.34;5124805;28;20024;-59
2021/07/18 01:49:07;;;;;;;16.80;15.05;;;;;;;23.38;73.25;99194.47;5109986;28;20070;-60
2021/07/18 01:51:34;;;;;;;17.13;14.77;;;;;;;23.40;73.34;99189.88;5105086;28;20258;-59
2021/07/18 01:54:02;;;;;;;17.70;15.07;;;;;;;23.41;72.81;99191.56;5104857;28;20075;-59
2021/07/18 01:56:28;;;;;;;18.10;14.35;;;;;;;23.37;73.16;99195.41;5118363;28;20269;-59
2021/07/18 01:58:54;;;;;;;18.77;14.60;;;;;;;23.32;73.13;99192.34;5105048;28;20030;-59
2021/07/18 02:01:26;;;;;;;20.25;14.23;;;;;;;23.36;73.46;99202.53;5105066;28;20059;-59
2021/07/18 02:03:53;;;;;;;15.57;13.35;;;;;;;23.40;73.30;99198.66;5110161;28;20058;-59
2021/07/18 02:06:21;;;;;;;15.52;13.93;;;;;;;23.39;73.05;99199.63;5121357;28;20047;-59
2021/07/18 02:08:48;;;;;;;20.05;13.85;;;;;;;23.37;73.55;99200.69;5109456;28;20043;-59
2021/07/18 02:11:18;;;;;;;17.92;14.27;;;;;;;23.15;73.40;99160.19;5108201;28;20055;-58
2021/07/18 02:13:56;;;;;;;17.83;14.30;;;;;;;23.18;73.25;99161.75;5104677;28;20066;-60
2021/07/18 02:16:22;;;;;;;18.25;14.20;;;;;;;23.45;73.11;99198.28;5117890;28;20058;-60
2021/07/18 02:18:49;;;;;;;21.23;14.48;;;;;;;23.51;72.89;99199.56;5112863;28;20028;-60
2021/07/18 02:21:18;;;;;;;22.73;14.43;;;;;;;23.25;72.62;99165.56;5104761;28;20055;-60
2021/07/18 02:23:45;;;;;;;20.55;14.38;;;;;;;23.54;73.05;99208.06;5124491;28;20042;-60
2021/07/18 02:26:11;;;;;;;18.45;14.10;;;;;;;23.54;73.09;99212.53;5124360;28;20369;-60
2021/07/18 02:28:37;;;;;;;23.75;14.68;;;;;;;23.53;73.43;99208.19;5120842;28;20016;-58
2021/07/18 02:31:04;;;;;;;16.35;14.27;;;;;;;23.58;73.34;99211.31;5104693;28;20225;-58
2021/07/18 02:33:33;;;;;;;18.05;14.02;;;;;;;23.57;73.10;99205.19;5104421;28;20074;-59
2021/07/18 02:35:59;;;;;;;19.13;14.27;;;;;;;23.60;72.65;99202.28;5110667;28;20236;-59
2021/07/18 02:38:26;;;;;;;17.05;13.88;;;;;;;23.64;72.71;99212.59;5115789;28;20351;-59
2021/07/18 02:40:53;;;;;;;21.05;14.30;;;;;;;23.71;72.49;99208.47;5118894;28;20130;-59
2021/07/18 02:43:19;;;;;;;21.23;14.18;;;;;;;23.68;72.67;99212.19;5104283;28;20276;-60
2021/07/18 02:45:45;;;;;;;20.30;13.27;;;;;;;23.72;71.67;99216.28;5108405;28;20027;-58
2021/07/18 02:48:10;;;;;;;20.25;13.27;;;;;;;23.74;72.56;99217.00;5107918;28;20016;-58
2021/07/18 02:50:36;;;;;;;14.48;12.07;;;;;;;23.77;71.46;99207.94;5104091;28;20375;-58
2021/07/18 02:53:02;;;;;;;20.35;12.23;;;;;;;23.83;70.86;99214.53;5103767;28;20048;-59
2021/07/18 02:55:28;;;;;;;16.48;12.05;;;;;;;23.86;70.17;99214.28;5112223;28;20020;-60
2021/07/18 02:57:54;;;;;;;12.55;11.25;;;;;;;23.83;69.55;99207.44;5112967;28;20036;-60
2021/07/18 03:00:23;;;;;;;14.00;11.05;;;;;;;23.68;69.50;99174.34;5114970;28;20036;-59
2021/07/18 03:02:49;;;;;;;12.95;11.57;;;;;;;23.94;69.23;99211.84;5103403;28;20050;-59
2021/07/18 03:05:16;;;;;;;13.10;10.63;;;;;;;24.01;68.65;99218.28;5111987;28;20027;-60
2021/07/18 03:07:43;;;;;;;14.82;10.98;;;;;;;24.08;69.16;99223.91;5119241;28;20043;-59
2021/07/18 03:10:11;;;;;;;12.30;11.05;;;;;;;24.07;68.12;99225.72;5123461;28;20038;-58
2021/07/18 03:12:37;;;;;;;16.58;10.60;;;;;;;24.12;68.67;99214.72;5123178;28;20046;-58
2021/07/18 03:15:05;;;;;;;13.23;10.43;;;;;;;24.19;68.41;99220.34;5123293;28;20019;-59
2021/07/18 03:17:31;;;;;;;14.90;9.77;;;;;;;24.29;68.34;99213.28;5123192;28;20039;-59
2021/07/18 03:20:00;;;;;;;12.15;10.48;;;;;;;24.30;67.84;99213.16;5115293;28;20026;-59
2021/07/18 03:22:32;;;;;;;14.05;11.95;;;;;;;24.34;67.87;99218.16;5115031;28;20055;-59
2021/07/18 03:25:02;;;;;;;12.57;10.30;;;;;;;24.51;67.67;99214.88;5123210;28;20047;-59
2021/07/18 03:27:28;;;;;;;15.23;11.48;;;;;;;24.51;66.76;99222.81;5121094;28;20074;-59
2021/07/18 03:29:54;;;;;;;14.38;9.93;;;;;;;24.50;66.80;99218.53;5103535;28;20110;-59
2021/07/18 03:32:20;;;;;;;14.07;9.88;;;;;;;24.53;66.36;99212.13;5119878;28;20238;-59
2021/07/18 03:34:47;;;;;;;12.05;9.98;;;;;;;24.56;65.48;99215.34;5103300;28;20032;-60
2021/07/18 03:37:13;;;;;;;11.45;10.00;;;;;;;24.64;65.73;99215.53;5114403;28;20047;-59
2021/07/18 03:39:39;;;;;;;12.88;8.73;;;;;;;24.66;63.55;99212.75;5106757;28;20031;-59
2021/07/18 03:42:05;;;;;;;9.48;8.60;;;;;;;24.81;64.43;99202.59;5115944;28;20030;-59
2021/07/18 03:44:31;;;;;;;10.88;8.68;;;;;;;24.89;64.18;99207.22;5105604;28;20096;-59
2021/07/18 03:46:57;;;;;;;10.38;8.98;;;;;;;25.06;63.88;99206.53;5123023;28;20039;-59
2021/07/18 03:49:23;;;;;;;10.35;8.85;;;;;;;25.14;63.38;99213.81;5105319;28;20087;-60
2021/07/18 03:51:49;;;;;;;11.32;9.20;;;;;;;25.43;62.81;99207.72;5111221;28;20024;-60
2021/07/18 03:54:15;;;;;;;10.93;9.05;;;;;;;25.50;62.12;99217.59;5103315;28;20316;-60
2021/07/18 03:56:41;;;;;;;10.05;9.05;;;;;;;25.56;62.45;99208.25;5122674;28;20019;-59
2021/07/18 03:59:07;;;;;;;12.88;9.10;;;;;;;25.56;62.80;99210.09;5114816;28;20035;-59
2021/07/18 04:01:33;;;;;;;10.07;9.02;;;;;;;25.58;62.81;99213.41;5122565;28;20031;-59
2021/07/18 04:03:59;;;;;;;9.85;8.93;;;;;;;25.63;62.96;99206.72;5108418;28;20213;-60
2021/07/18 04:06:24;;;;;;;9.77;8.90;;;;;;;25.66;62.59;99210.91;5106212;28;20015;-59
2021/07/18 04:08:50;;;;;;;9.88;8.88;;;;;;;25.66;62.15;99214.38;5114553;28;20019;-59
2021/07/18 04:11:16;;;;;;;11.50;9.70;;;;;;;25.66;62.17;99206.41;5114136;28;20028;-59
2021/07/18 04:13:42;;;;;;;9.98;8.95;;;;;;;25.70;62.38;99201.69;5106955;28;20019;-59
2021/07/18 04:16:08;;;;;;;12.43;8.95;;;;;;;25.73;62.44;99205.88;5125655;28;20366;-60
2021/07/18 04:18:34;;;;;;;11.52;9.80;;;;;;;25.76;62.60;99194.97;5126644;28;20039;-59
2021/07/18 04:21:00;;;;;;;11.75;8.93;;;;;;;25.75;62.39;99195.94;5126868;28;20043;-59
2021/07/18 04:23:26;;;;;;;11.02;9.93;;;;;;;25.82;62.64;99197.91;5098643;28;20328;-59
2021/07/18 04:25:52;;;;;;;11.93;9.93;;;;;;;25.84;62.17;99197.75;5106745;28;20044;-59
2021/07/18 04:28:18;;;;;;;11.00;9.25;;;;;;;25.84;62.12;99200.41;5116827;28;20042;-59
2021/07/18 04:30:44;;;;;;;10.75;9.68;;;;;;;25.90;62.25;99202.47;5126521;28;20072;-59
2021/07/18 04:33:10;;;;;;;12.35;9.00;;;;;;;25.94;62.20;99193.25;5126536;28;20043;-59
2021/07/18 04:35:37;;;;;;;10.32;9.18;;;;;;;26.04;62.01;99203.03;5109848;28;20309;-58
2021/07/18 04:38:04;;;;;;;10.77;9.05;;;;;;;26.09;61.68;99195.47;5118186;28;20047;-59
2021/07/18 04:40:30;;;;;;;10.20;8.82;;;;;;;26.13;61.74;99200.34;5123973;28;20039;-60
2021/07/18 04:42:56;;;;;;;9.38;8.43;;;;;;;26.15;61.65;99192.22;5106777;28;20090;-60
2021/07/18 04:45:22;;;;;;;9.45;8.50;;;;;;;26.19;61.50;99198.91;5115704;28;20121;-59
2021/07/18 04:47:50;;;;;;;17.13;9.27;;;;;;;25.99;60.92;99148.53;5121640;28;20040;-59
2021/07/18 04:50:17;;;;;;;10.82;9.35;;;;;;;26.32;61.03;99194.13;5106305;28;20047;-59
2021/07/18 04:52:43;;;;;;;9.10;8.20;;;;;;;26.38;60.66;99197.16;5105989;28;20047;-59
2021/07/18 04:55:11;;;;;;;12.45;8.60;;;;;;;26.46;59.53;99197.28;5121734;28;20031;-59
2021/07/18 04:57:37;;;;;;;10.98;9.30;;;;;;;26.51;59.62;99187.88;5105766;28;20044;-59
2021/07/18 05:00:14;;;;;;;8.77;7.90;;;;;;;26.59;58.40;99188.97;5111203;28;20071;-59
2021/07/18 05:02:41;;;;;;;10.88;7.90;;;;;;;26.67;57.65;99192.53;5104368;28;20035;-59
2021/07/18 05:05:08;;;;;;;9.52;7.40;;;;;;;26.78;57.49;99201.31;5104394;28;20047;-59
2021/07/18 05:08:01;;;;;;;8.07;6.85;;;;;;;26.66;56.50;99151.00;5120589;28;20063;-59
2021/07/18 05:10:28;;;;;;;10.70;7.72;;;;;;;26.74;57.09;99152.97;5104300;28;20039;-59
2021/07/18 05:12:56;;;;;;;11.30;7.85;;;;;;;27.10;54.96;99194.69;5092599;28;20035;-59
2021/07/18 05:15:23;;;;;;;10.43;7.82;;;;;;;27.30;55.88;99190.88;5124034;28;20336;-59
2021/07/18 05:17:50;;;;;;;8.40;7.50;;;;;;;27.28;54.09;99190.19;5112770;28;20043;-61
2021/07/18 05:20:19;;;;;;;9.98;7.72;;;;;;;27.19;53.24;99159.19;5104267;28;20055;-60
2021/07/18 05:22:44;;;;;;;8.57;7.78;;;;;;;27.25;52.81;99179.88;5112178;28;20050;-60
2021/07/18 05:25:11;;;;;;;8.27;7.18;;;;;;;27.38;53.29;99183.00;5103240;28;20024;-60
2021/07/18 05:27:38;;;;;;;9.98;7.32;;;;;;;27.57;53.52;99185.63;5104343;28;20047;-59
2021/07/18 05:30:06;;;;;;;7.95;6.57;;;;;;;27.77;53.42;99186.28;5110742;28;20047;-59
2021/07/18 05:32:32;;;;;;;9.43;6.97;;;;;;;27.87;53.48;99184.34;5114405;28;20097;-60
2021/07/18 05:34:58;;;;;;;7.93;7.18;;;;;;;27.79;52.02;99178.97;5105768;28;20055;-60
2021/07/18 05:37:24;;;;;;;8.73;7.25;;;;;;;27.87;51.95;99182.50;5113517;28;20081;-60
2021/07/18 05:39:50;;;;;;;8.18;7.38;;;;;;;27.99;51.13;99182.28;5105425;28;20042;-60
2021/07/18 05:42:17;;;;;;;7.80;7.00;;;;;;;28.14;51.63;99182.53;5105701;28;20036;-59
2021/07/18 05:44:43;;;;;;;9.88;7.13;;;;;;;28.15;51.65;99189.53;5125124;28;20042;-59
2021/07/18 05:47:09;;;;;;;7.10;6.40;;;;;;;28.15;51.66;99186.88;5116801;28;20024;-60
2021/07/18 05:49:36;;;;;;;7.28;6.60;;;;;;;28.14;51.21;99180.69;5116944;28;20047;-61
2021/07/18 05:52:03;;;;;;;7.75;6.93;;;;;;;28.19;51.40;99170.41;5110336;28;20047;-61
2021/07/18 05:54:29;;;;;;;9.15;7.15;;;;;;;28.30;51.14;99184.44;5105082;28;20059;-61
2021/07/18 05:56:55;;;;;;;7.65;6.90;;;;;;;28.29;51.13;99180.94;5092820;28;20055;-61
2021/07/18 05:59:23;;;;;;;7.55;6.65;;;;;;;28.40;50.52;99188.66;5108152;28;20034;-59
2021/07/18 06:01:49;;;;;;;8.20;7.25;;;;;;;28.31;49.82;99192.25;5113170;28;20044;-60
2021/07/18 06:04:16;;;;;;;7.28;6.60;;;;;;;28.36;50.76;99181.97;5095211;28;20055;-60
2021/07/18 06:06:42;;;;;;;8.00;6.65;;;;;;;28.40;49.58;99171.81;5124203;28;20269;-60
2021/07/18 06:09:07;;;;;;;8.13;6.68;;;;;;;28.60;50.64;99177.72;5117488;28;20016;-60
2021/07/18 06:11:34;;;;;;;6.70;6.07;;;;;;;28.62;51.17;99173.09;5107021;28;20038;-59
2021/07/18 06:14:00;;;;;;;8.55;6.32;;;;;;;28.59;50.80;99174.22;5118652;28;20043;-59
2021/07/18 06:16:26;;;;;;;7.20;6.50;;;;;;;28.71;49.87;99172.09;5123127;28;20023;-60
2021/07/18 06:18:52;;;;;;;7.63;6.82;;;;;;;28.72;48.96;99181.78;5110931;28;20043;-60
2021/07/18 06:21:19;;;;;;;8.30;6.45;;;;;;;28.85;47.67;99169.81;5113070;28;20016;-60
2021/07/18 06:23:45;;;;;;;8.60;7.25;;;;;;;28.97;49.70;99176.50;5120429;28;20054;-60
2021/07/18 06:26:12;;;;;;;6.97;6.28;;;;;;;29.04;47.43;99172.16;5112237;28;20046;-60
2021/07/18 06:28:38;;;;;;;7.72;6.63;;;;;;;29.03;46.80;99167.00;5120795;28;20058;-59
2021/07/18 06:31:04;;;;;;;7.13;6.43;;;;;;;29.01;46.17;99169.00;5119261;28;20051;-60
2021/07/18 06:33:29;;;;;;;7.22;6.53;;;;;;;29.08;46.84;99168.16;5121506;28;20305;-59
2021/07/18 06:35:55;;;;;;;8.45;7.10;;;;;;;29.02;46.33;99171.50;5117732;28;20019;-60
2021/07/18 06:38:21;;;;;;;8.15;7.35;;;;;;;28.98;48.28;99162.16;5122600;28;20088;-59
2021/07/18 06:40:47;;;;;;;7.30;6.60;;;;;;;28.94;47.53;99174.16;5124139;28;20027;-59
2021/07/18 06:43:13;;;;;;;7.78;6.72;;;;;;;29.00;48.51;99160.19;5105903;28;20020;-59
2021/07/18 06:45:39;;;;;;;7.03;6.43;;;;;;;28.99;48.08;99150.50;5106982;28;20091;-60
2021/07/18 06:48:05;;;;;;;7.25;6.22;;;;;;;29.09;46.98;99166.34;5123551;28;20035;-60
2021/07/18 06:50:31;;;;;;;8.77;6.97;;;;;;;29.17;46.40;99154.84;5123384;28;20054;-60
2021/07/18 06:52:57;;;;;;;8.70;6.60;;;;;;;29.19;46.31;99158.19;5109381;28;20016;-60
2021/07/18 06:55:22;;;;;;;7.95;7.03;;;;;;;29.20;48.03;99152.69;5111606;28;20281;-60
2021/07/18 06:57:50;;;;;;;8.15;7.30;;;;;;;29.36;46.89;99162.56;5111822;28;20028;-60
2021/07/18 07:00:17;;;;;;;7.80;6.72;;;;;;;29.48;46.49;99159.53;5103141;28;20044;-59
2021/07/18 07:02:44;;;;;;;7.88;7.18;;;;;;;29.52;46.26;99161.69;5089008;28;20355;-60
2021/07/18 07:05:11;;;;;;;7.70;6.57;;;;;;;29.65;47.00;99160.38;5086218;28;20059;-60
2021/07/18 07:07:37;;;;;;;8.10;7.20;;;;;;;29.76;46.97;99157.34;5109720;28;20051;-61
2021/07/18 07:10:05;;;;;;;9.43;6.82;;;;;;;29.75;46.71;99153.81;5118101;28;20035;-60
2021/07/18 07:12:31;;;;;;;9.15;7.15;;;;;;;29.75;46.89;99161.81;5104871;28;20328;-60
2021/07/18 07:14:57;;;;;;;8.27;7.05;;;;;;;29.80;46.42;99161.34;5123413;28;20039;-60
2021/07/18 07:17:23;;;;;;;10.65;7.07;;;;;;;29.92;46.91;99167.19;5114829;28;20051;-60
2021/07/18 07:19:49;;;;;;;10.02;7.35;;;;;;;29.73;46.52;99160.31;5110435;28;20047;-60
2021/07/18 07:22:15;;;;;;;8.30;7.60;;;;;;;29.81;46.55;99159.50;5103486;28;20358;-59
2021/07/18 07:24:41;;;;;;;8.20;7.45;;;;;;;29.93;46.67;99153.66;5115397;28;20058;-58
2021/07/18 07:27:07;;;;;;;8.48;7.18;;;;;;;29.69;46.36;99157.19;5123091;28;20218;-60
2021/07/18 07:29:33;;;;;;;7.72;6.93;;;;;;;29.70;47.22;99163.34;5104017;28;20024;-60
2021/07/18 07:32:00;;;;;;;8.00;7.20;;;;;;;29.53;46.03;99162.53;5103105;28;20097;-60
2021/07/18 07:34:26;;;;;;;9.90;7.32;;;;;;;29.21;46.59;99161.53;5103206;28;20255;-59
2021/07/18 07:36:51;;;;;;;8.60;7.72;;;;;;;29.55;46.88;99161.34;5105599;28;20028;-59
2021/07/18 07:39:17;;;;;;;8.02;7.20;;;;;;;29.60;47.23;99163.50;5106220;28;20291;-60
2021/07/18 07:41:43;;;;;;;8.75;7.53;;;;;;;29.63;47.27;99165.03;5115374;28;20265;-60
2021/07/18 07:44:09;;;;;;;7.43;6.80;;;;;;;29.55;47.37;99169.38;5107275;28;20193;-59
2021/07/18 07:46:35;;;;;;;9.45;7.45;;;;;;;29.47;48.12;99163.22;5111310;28;20096;-59
2021/07/18 07:49:01;;;;;;;7.72;6.97;;;;;;;29.34;48.42;99161.03;5103111;28;20054;-58
2021/07/18 07:51:27;;;;;;;7.50;6.63;;;;;;;29.42;48.14;99158.38;5119374;28;20043;-59
2021/07/18 07:53:53;;;;;;;8.98;7.93;;;;;;;29.37;48.69;99161.56;5116150;28;20047;-60
2021/07/18 07:56:19;;;;;;;8.52;7.82;;;;;;;29.29;48.63;99150.03;5113940;28;20039;-59
2021/07/18 07:58:45;;;;;;;8.60;7.80;;;;;;;29.37;48.26;99144.69;5108078;28;20028;-58
2021/07/18 08:01:11;;;;;;;7.60;6.57;;;;;;;29.46;47.73;99149.03;5119121;28;20047;-57
2021/07/18 08:03:37;;;;;;;9.05;8.07;;;;;;;29.47;47.77;99149.88;5103025;28;20013;-57
2021/07/18 08:06:03;;;;;;;8.35;7.57;;;;;;;29.46;47.45;99150.84;5102606;28;20088;-58
2021/07/18 08:08:29;;;;;;;15.75;7.82;;;;;;;29.76;47.21;99150.16;5089191;28;20355;-57
2021/07/18 08:10:55;;;;;;;8.25;7.45;;;;;;;29.94;46.22;99155.31;5102065;28;20079;-57
2021/07/18 08:13:21;;;;;;;11.90;8.30;;;;;;;29.90;46.43;99153.16;5119141;28;20063;-58
2021/07/18 08:15:47;;;;;;;8.55;7.45;;;;;;;29.89;45.29;99151.50;5107232;28;20028;-58
2021/07/18 08:18:13;;;;;;;8.18;7.45;;;;;;;30.08;45.27;99147.59;5118901;28;20031;-57
2021/07/18 08:20:38;;;;;;;7.93;7.22;;;;;;;29.95;43.71;99150.81;5118984;28;20024;-57
2021/07/18 08:23:05;;;;;;;7.70;7.00;;;;;;;30.03;43.63;99148.13;5109610;28;20034;-57
2021/07/18 08:25:31;;;;;;;10.85;8.50;;;;;;;29.87;43.28;99142.81;5111810;28;20363;-56
2021/07/18 08:27:56;;;;;;;9.35;7.95;;;;;;;30.02;44.42;99140.28;5107142;28;20016;-56
2021/07/18 08:30:23;;;;;;;8.82;7.93;;;;;;;30.12;43.44;99130.22;5103806;28;20020;-57
2021/07/18 08:32:51;;;;;;;8.85;7.90;;;;;;;30.00;43.36;99137.78;5117660;28;20051;-58
2021/07/18 08:35:17;;;;;;;8.80;7.90;;;;;;;30.21;43.38;99129.16;5111336;28;20039;-58
2021/07/18 08:37:44;;;;;;;9.90;7.90;;;;;;;30.35;42.97;99138.28;5118622;28;20047;-58
2021/07/18 08:40:12;;;;;;;9.02;8.13;;;;;;;30.39;43.60;99115.56;5122339;28;20054;-58
2021/07/18 08:42:39;;;;;;;8.77;7.88;;;;;;;30.39;42.58;99125.41;5122027;28;20039;-58
2021/07/18 08:45:06;;;;;;;10.07;7.80;;;;;;;30.67;42.87;99132.97;5122276;28;20066;-58
2021/07/18 08:47:33;;;;;;;9.40;8.48;;;;;;;30.89;42.92;99124.13;5103766;28;20355;-59
2021/07/18 08:49:59;;;;;;;8.75;7.40;;;;;;;31.01;43.67;99127.22;5122133;28;20051;-58
2021/07/18 08:52:25;;;;;;;8.95;8.15;;;;;;;31.08;43.26;99130.84;5120627;28;20050;-57
2021/07/18 08:54:53;;;;;;;9.02;8.10;;;;;;;30.80;43.75;99101.97;5107262;28;20071;-57
2021/07/18 08:57:22;;;;;;;9.27;8.30;;;;;;;30.79;45.00;99127.03;5106273;28;20059;-58
2021/07/18 08:59:49;;;;;;;9.23;8.30;;;;;;;30.68;44.90;99130.13;5114873;28;20058;-58
2021/07/18 09:02:17;;;;;;;8.43;7.60;;;;;;;30.53;44.37;99130.03;5105248;28;20058;-57
2021/07/18 09:04:43;;;;;;;8.82;7.93;;;;;;;30.32;44.24;99135.97;5105975;28;20039;-57
2021/07/18 09:07:10;;;;;;;12.70;8.40;;;;;;;30.08;44.70;99124.38;5108844;28;20099;-58
2021/07/18 09:09:36;;;;;;;9.93;8.30;;;;;;;30.12;43.79;99123.03;5106128;28;20044;-59
2021/07/18 09:12:09;;;;;;;10.93;8.23;;;;;;;30.30;44.45;99125.47;5112428;28;20275;-58
2021/07/18 09:14:42;;;;;;;10.57;8.82;;;;;;;30.45;44.73;99127.41;5106213;28;20419;-58
2021/07/18 09:17:14;;;;;;;11.45;8.60;;;;;;;30.26;44.50;99088.59;5113077;28;20055;-59
2021/07/18 09:19:42;;;;;;;9.57;8.68;;;;;;;30.33;43.51;99115.41;5105508;28;20056;-59
2021/07/18 09:22:14;;;;;;;11.93;8.50;;;;;;;30.05;44.02;99107.88;5113823;28;20052;-59
2021/07/18 09:24:46;;;;;;;9.88;8.82;;;;;;;29.91;42.72;99109.41;5117037;28;20066;-59
2021/07/18 09:27:21;;;;;;;8.88;8.02;;;;;;;30.37;41.99;99120.25;5125581;28;20055;-59
2021/07/18 09:30:04;;;;;;;8.73;7.82;;;;;;;30.44;42.80;99081.16;5105469;28;20051;-59
2021/07/18 09:32:34;;;;;;;8.75;7.95;;;;;;;30.80;42.69;99096.63;5123771;28;20043;-58
2021/07/18 09:35:09;;;;;;;8.43;7.63;;;;;;;30.90;42.50;99092.84;5121962;28;20079;-58
2021/07/18 09:37:43;;;;;;;9.38;8.18;;;;;;;30.70;42.95;99079.13;5087083;28;20070;-58
2021/07/18 09:40:14;;;;;;;9.65;8.02;;;;;;;30.54;43.08;99056.88;5120961;28;20061;-58
2021/07/18 09:42:47;;;;;;;11.00;8.13;;;;;;;30.73;42.57;99103.69;5125031;28;20359;-63
2021/07/18 09:45:18;;;;;;;10.35;9.35;;;;;;;30.64;43.27;99107.41;5108645;28;20444;-64
2021/07/18 09:48:00;;;;;;;;;;;;;;;30.65;43.11;99098.38;5112422;28;20259;-64
2021/07/18 09:50:38;;;;;;;13.57;8.63;;;;;;;30.46;42.41;99071.09;5108348;28;19928;-66
2021/07/18 09:53:22;;;;;;;11.85;9.07;;;;;;;30.73;42.72;99092.16;5117784;28;20337;-65
2021/07/18 09:56:09;;;;;;;10.93;9.82;;;;;;;30.73;42.21;99089.50;5104826;28;20265;-62
2021/07/18 09:58:50;;;;;;;13.85;9.70;;;;;;;30.83;42.58;99099.94;5112996;28;20059;-62
2021/07/18 10:01:17;;;;;;;;;;;;;;;30.98;43.24;99092.78;5105931;28;20055;-63
2021/07/18 10:03:56;;;;;;;9.00;8.18;;;;;;;31.12;43.15;99083.19;5112609;28;19931;-64
2021/07/18 10:06:26;;;;;;;11.13;8.80;;;;;;;31.17;42.06;99080.81;5104677;28;20344;-65
2021/07/18 10:09:09;;;;;;;17.05;9.23;;;;;;;31.06;42.28;99041.13;5112100;28;20043;-63
2021/07/18 10:11:35;;;;;;;13.32;9.75;;;;;;;31.10;42.94;99070.00;5124217;28;20051;-62
2021/07/18 10:14:02;;;;;;;10.23;9.05;;;;;;;31.25;42.00;99067.31;5124376;28;20339;-62
2021/07/18 10:16:31;;;;;;;11.32;8.70;;;;;;;31.13;42.40;99029.50;5106087;28;20054;-62
2021/07/18 10:18:58;;;;;;;13.02;9.25;;;;;;;31.38;42.08;99058.66;5106460;28;20352;-62
2021/07/18 10:21:27;;;;;;;9.30;8.40;;;;;;;31.28;41.02;99055.44;5122091;28;20047;-63
2021/07/18 10:23:55;;;;;;;9.73;8.68;;;;;;;31.39;41.63;99059.50;5124284;28;20046;-62
2021/07/18 10:26:25;;;;;;;11.68;9.75;;;;;;;31.03;41.11;99028.94;5115073;28;20054;-62
2021/07/18 10:28:52;;;;;;;9.98;8.85;;;;;;;31.12;41.41;99051.91;5088129;28;20264;-62
2021/07/18 10:31:29;;;;;;;10.52;9.20;;;;;;;30.98;39.98;99031.28;5112563;28;20042;-63
2021/07/18 10:33:56;;;;;;;11.10;9.30;;;;;;;31.14;41.13;99049.03;5104071;28;20048;-62
2021/07/18 10:36:24;;;;;;;11.27;9.18;;;;;;;31.09;40.62;99009.47;5105064;28;20051;-62
2021/07/18 10:38:51;;;;;;;10.13;9.02;;;;;;;31.37;40.22;99038.28;5110879;28;20044;-62
2021/07/18 10:41:43;;;;;;;9.65;8.75;;;;;;;31.41;40.37;99034.22;5112265;28;20043;-63
2021/07/18 10:44:11;;;;;;;11.57;8.75;;;;;;;31.39;40.91;99024.72;5112285;28;20051;-62
2021/07/18 10:46:43;;;;;;;9.65;8.52;;;;;;;31.48;41.56;99026.28;5120287;28;20047;-63
2021/07/18 10:49:13;;;;;;;11.80;10.25;;;;;;;31.50;40.74;99017.06;5105394;28;20048;-63
2021/07/18 10:51:41;;;;;;;9.50;8.65;;;;;;;31.65;40.58;99013.56;5107356;28;20039;-62
2021/07/18 10:54:08;;;;;;;12.00;8.98;;;;;;;31.72;40.89;99013.66;5123391;28;20063;-62
2021/07/18 10:56:49;;;;;;;12.13;8.73;;;;;;;31.20;42.89;98978.75;5105248;28;20517;-62
2021/07/18 10:59:37;;;;;;;11.02;8.82;;;;;;;31.64;41.42;99012.75;5114798;28;20268;-61
2021/07/18 11:02:07;;;;;;;10.85;8.90;;;;;;;31.69;40.61;99014.84;5103685;28;20051;-63
2021/07/18 11:04:53;;;;;;;10.38;9.32;;;;;;;31.59;40.26;99006.28;5103670;28;20054;-62
2021/07/18 11:07:23;;;;;;;10.10;9.02;;;;;;;31.61;41.84;99001.56;5104058;28;20336;-61
2021/07/18 11:09:56;;;;;;;11.30;9.50;;;;;;;31.31;39.99;98994.34;5103617;28;20055;-61
2021/07/18 11:12:32;;;;;;;10.68;8.82;;;;;;;31.58;40.30;98991.22;5111514;28;20046;-63
2021/07/18 11:15:22;;;;;;;10.80;8.73;;;;;;;31.73;41.08;98992.03;5117525;28;20039;-61
2021/07/18 11:18:02;;;;;;;10.73;9.73;;;;;;;31.44;41.92;98993.72;5108507;28;20059;-62
2021/07/18 11:20:39;;;;;;;10.68;9.52;;;;;;;31.54;39.67;98990.75;5104802;28;20062;-62
2021/07/18 11:23:06;;;;;;;11.38;9.45;;;;;;;31.49;40.01;98985.13;5111531;28;20048;-62
2021/07/18 11:25:41;;;;;;;10.27;9.15;;;;;;;31.64;41.29;98982.47;5103108;28;20051;-62
2021/07/18 11:28:30;;;;;;;10.98;9.88;;;;;;;31.64;42.36;98987.81;5103403;28;20056;-63
2021/07/18 11:31:14;;;;;;;10.68;9.45;;;;;;;31.73;42.45;98977.84;5103305;28;20043;-62